Time;durP1;ratioP1;P1;durP2;ratioP2;P2;SDS_P1;SDS_P2;PMS_P1;PMS_P2;Temp;Humidity;BMP_temperature;BMP_pressure;BME280_temperature;BME280_humidity;BME280_pressure;Samples;Min_cycle;Max_cycle;Signal;HPM_P1;HPM_P2
2022/04/27 00:02:57;;;;;;;104.63;49.75;;;;;;;;;;6266623;28;20045;-79
2022/04/27 00:05:57;;;;;;;124.72;55.92;;;;;;;;;;6267924;28;20017;-80
2022/04/27 00:08:57;;;;;;;109.82;49.30;;;;;;;;;;6267606;28;20028;-79
2022/04/27 00:12:01;;;;;;;127.47;56.60;;;;;;;;;;6267821;28;20035;-79
2022/04/27 00:15:02;;;;;;;104.57;52.72;;;;;;;;;;6267816;28;20036;-80
2022/04/27 00:18:02;;;;;;;111.07;51.60;;;;;;;;;;6229863;28;20097;-81
2022/04/27 00:21:02;;;;;;;119.38;54.08;;;;;;;;;;6248600;28;20832;-80
2022/04/27 00:24:03;;;;;;;112.13;50.87;;;;;;;;;;6249133;28;20005;-79
2022/04/27 00:27:03;;;;;;;83.65;41.75;;;;;;;;;;6256629;28;20263;-79
2022/04/27 00:30:04;;;;;;;107.60;49.65;;;;;;;;;;6267905;28;20021;-79
2022/04/27 00:33:04;;;;;;;92.55;43.17;;;;;;;;;;6265936;28;20029;-79
2022/04/27 00:36:04;;;;;;;84.32;41.58;;;;;;;;;;6267651;28;20369;-79
2022/04/27 00:39:05;;;;;;;86.82;40.05;;;;;;;;;;6268336;28;20025;-79
2022/04/27 00:42:12;;;;;;;74.28;37.05;;;;;;;;;;6266270;28;20013;-79
2022/04/27 00:45:12;;;;;;;80.07;35.55;;;;;;;;;;6249481;28;20123;-79
2022/04/27 00:48:12;;;;;;;73.72;36.47;;;;;;;;;;6267481;28;20468;-79
2022/04/27 00:51:14;;;;;;;80.13;38.77;;;;;;;;;;6249773;28;20098;-79
2022/04/27 00:54:15;;;;;;;81.07;39.58;;;;;;;;;;6243569;28;20275;-80
2022/04/27 00:57:15;;;;;;;82.65;41.90;;;;;;;;;;6270180;28;20025;-80
2022/04/27 01:00:15;;;;;;;86.60;43.97;;;;;;;;;;6253796;28;20017;-80
2022/04/27 01:03:16;;;;;;;87.53;42.67;;;;;;;;;;6253772;28;20027;-80
2022/04/27 01:06:16;;;;;;;72.80;36.67;;;;;;;;;;6271732;28;20032;-80
2022/04/27 01:09:17;;;;;;;70.47;36.78;;;;;;;;;;6257180;28;20049;-79
2022/04/27 01:12:18;;;;;;;85.38;41.58;;;;;;;;;;6271709;28;20103;-80
2022/04/27 01:15:31;;;;;;;86.85;41.88;;;;;;;;;;6271396;28;20098;-80
2022/04/27 01:18:31;;;;;;;71.10;37.88;;;;;;;;;;6249706;28;20091;-80
2022/04/27 01:21:33;;;;;;;75.05;33.70;;;;;;;;;;6253892;28;20009;-80
2022/04/27 01:24:33;;;;;;;70.60;34.20;;;;;;;;;;6252513;28;20052;-79
2022/04/27 01:27:33;;;;;;;78.05;33.72;;;;;;;;;;6253826;28;20251;-80
2022/04/27 01:30:34;;;;;;;68.32;34.00;;;;;;;;;;6271358;28;20031;-80
2022/04/27 01:33:34;;;;;;;71.78;35.50;;;;;;;;;;6252755;28;20112;-80
2022/04/27 01:36:34;;;;;;;66.95;31.90;;;;;;;;;;6254973;28;20024;-80
2022/04/27 01:39:35;;;;;;;72.47;34.72;;;;;;;;;;6270417;28;20025;-79
2022/04/27 01:42:36;;;;;;;71.20;33.63;;;;;;;;;;6251849;28;20013;-80
2022/04/27 01:45:36;;;;;;;71.35;33.00;;;;;;;;;;6270907;28;20028;-80
2022/04/27 01:48:36;;;;;;;85.40;42.57;;;;;;;;;;6270797;28;20078;-80
2022/04/27 01:54:55;;;;;;;77.50;36.22;;;;;;;;;;6270941;28;20025;-81
2022/04/27 01:57:55;;;;;;;72.55;37.78;;;;;;;;;;6270562;28;20090;-80
2022/04/27 02:00:56;;;;;;;76.28;35.53;;;;;;;;;;6252789;28;20057;-80
2022/04/27 02:03:57;;;;;;;76.78;37.38;;;;;;;;;;6270300;28;20522;-80
2022/04/27 02:06:57;;;;;;;84.72;40.42;;;;;;;;;;6268655;28;20021;-80
2022/04/27 02:09:57;;;;;;;85.13;37.17;;;;;;;;;;6267068;28;20041;-80
2022/04/27 02:12:58;;;;;;;69.90;34.55;;;;;;;;;;6251148;28;20267;-80
2022/04/27 02:16:00;;;;;;;78.47;34.17;;;;;;;;;;6268296;28;20032;-81
2022/04/27 02:19:01;;;;;;;59.28;30.63;;;;;;;;;;6251170;28;20427;-81
2022/04/27 02:22:02;;;;;;;67.57;31.75;;;;;;;;;;6252495;28;20017;-80
2022/04/27 02:25:02;;;;;;;62.38;32.10;;;;;;;;;;6250631;28;20016;-80
2022/04/27 02:28:03;;;;;;;70.97;33.85;;;;;;;;;;6268986;28;20357;-80
2022/04/27 02:31:03;;;;;;;53.33;27.33;;;;;;;;;;6269345;28;20484;-80
2022/04/27 02:34:03;;;;;;;70.03;33.47;;;;;;;;;;6270156;28;20104;-81
2022/04/27 02:37:06;;;;;;;61.53;30.92;;;;;;;;;;6252005;28;20056;-80
2022/04/27 02:40:08;;;;;;;65.05;34.13;;;;;;;;;;6268377;28;20020;-81
2022/04/27 02:43:09;;;;;;;59.15;30.73;;;;;;;;;;6252001;28;20021;-80
2022/04/27 02:46:09;;;;;;;59.50;29.50;;;;;;;;;;6251691;28;20028;-80
2022/04/27 02:52:28;;;;;;;64.18;30.50;;;;;;;;;;6269540;28;20492;-80
2022/04/27 02:55:28;;;;;;;57.38;28.67;;;;;;;;;;6269390;28;20024;-80
2022/04/27 02:58:28;;;;;;;54.20;25.55;;;;;;;;;;6269519;28;20010;-80
2022/04/27 03:01:29;;;;;;;56.85;29.45;;;;;;;;;;6251393;28;20447;-81
2022/04/27 03:04:29;;;;;;;62.07;28.40;;;;;;;;;;6250889;28;20112;-81
2022/04/27 03:07:29;;;;;;;54.38;31.00;;;;;;;;;;6250880;28;20252;-80
2022/04/27 03:10:29;;;;;;;52.30;28.73;;;;;;;;;;6268687;28;20357;-80
2022/04/27 03:13:30;;;;;;;59.58;29.33;;;;;;;;;;6251136;28;20267;-80
2022/04/27 03:16:30;;;;;;;58.87;27.40;;;;;;;;;;6243307;28;20081;-81
2022/04/27 03:19:30;;;;;;;53.47;27.55;;;;;;;;;;6236584;28;20267;-81
2022/04/27 03:22:30;;;;;;;54.35;26.77;;;;;;;;;;6250131;28;20103;-80
2022/04/27 03:25:31;;;;;;;58.45;28.58;;;;;;;;;;6249709;28;20040;-81
2022/04/27 03:28:31;;;;;;;57.67;29.48;;;;;;;;;;6250892;28;20146;-80
2022/04/27 03:31:32;;;;;;;64.38;29.20;;;;;;;;;;6250517;28;20071;-80
2022/04/27 03:34:32;;;;;;;59.65;28.50;;;;;;;;;;6250090;28;20171;-80
2022/04/27 03:37:33;;;;;;;70.60;34.78;;;;;;;;;;6250454;28;20021;-80
2022/04/27 03:40:33;;;;;;;60.47;29.20;;;;;;;;;;6268566;28;20036;-80
2022/04/27 03:43:33;;;;;;;63.63;33.80;;;;;;;;;;6235657;28;20255;-80
2022/04/27 03:46:33;;;;;;;59.42;28.63;;;;;;;;;;6225568;28;20308;-80
2022/04/27 03:49:33;;;;;;;59.40;28.13;;;;;;;;;;6244008;28;20064;-80
2022/04/27 03:52:34;;;;;;;58.93;28.20;;;;;;;;;;6225515;28;20108;-80
2022/04/27 03:55:34;;;;;;;61.78;30.77;;;;;;;;;;6246444;28;20280;-80
2022/04/27 03:58:34;;;;;;;60.78;28.55;;;;;;;;;;6250690;28;20040;-80
2022/04/27 04:01:34;;;;;;;58.03;28.95;;;;;;;;;;6250331;28;20013;-80
2022/04/27 04:04:35;;;;;;;62.40;32.67;;;;;;;;;;6267587;28;20399;-79
2022/04/27 04:07:35;;;;;;;68.55;33.63;;;;;;;;;;6268042;28;20017;-80
2022/04/27 04:10:35;;;;;;;71.88;36.30;;;;;;;;;;6247677;28;20039;-80
2022/04/27 04:13:35;;;;;;;69.75;34.47;;;;;;;;;;6268189;28;20017;-80
2022/04/27 04:16:36;;;;;;;55.60;30.93;;;;;;;;;;6249666;28;20036;-80
2022/04/27 04:19:36;;;;;;;66.72;31.60;;;;;;;;;;6249708;28;20264;-80
2022/04/27 04:22:36;;;;;;;68.03;31.90;;;;;;;;;;6268042;28;20029;-80
2022/04/27 04:28:55;;;;;;;64.15;33.65;;;;;;;;;;6268060;28;20488;-80
2022/04/27 04:31:56;;;;;;;74.30;34.03;;;;;;;;;;6251628;28;20028;-80
2022/04/27 04:34:57;;;;;;;71.22;35.97;;;;;;;;;;6272049;28;20124;-80
2022/04/27 04:37:57;;;;;;;73.72;34.55;;;;;;;;;;6254660;28;20031;-80
2022/04/27 04:40:57;;;;;;;69.95;38.17;;;;;;;;;;6277407;28;20423;-81
2022/04/27 04:43:57;;;;;;;66.23;38.00;;;;;;;;;;6254508;28;20017;-81
2022/04/27 04:46:58;;;;;;;68.30;36.78;;;;;;;;;;6254379;28;20269;-81
2022/04/27 04:49:58;;;;;;;72.70;38.07;;;;;;;;;;6272614;28;20488;-81
2022/04/27 04:52:58;;;;;;;60.60;31.30;;;;;;;;;;6272637;28;20600;-81
2022/04/27 04:55:58;;;;;;;60.55;32.10;;;;;;;;;;6272257;28;20877;-81
2022/04/27 04:58:59;;;;;;;53.70;28.67;;;;;;;;;;6254525;28;20647;-80
2022/04/27 05:01:59;;;;;;;58.63;29.25;;;;;;;;;;6253909;28;20629;-81
2022/04/27 05:05:02;;;;;;;47.73;26.47;;;;;;;;;;6269281;28;20021;-81
2022/04/27 05:08:05;;;;;;;53.03;31.60;;;;;;;;;;6246658;28;20291;-81
2022/04/27 05:11:05;;;;;;;68.30;36.50;;;;;;;;;;6271171;28;20582;-81
2022/04/27 05:14:05;;;;;;;72.30;39.83;;;;;;;;;;6270827;28;20075;-81
2022/04/27 05:17:06;;;;;;;64.00;35.57;;;;;;;;;;6257624;28;20797;-82
2022/04/27 05:20:07;;;;;;;54.37;30.57;;;;;;;;;;6269529;28;20754;-82
2022/04/27 05:23:07;;;;;;;56.58;31.55;;;;;;;;;;6254044;28;20335;-82
2022/04/27 05:26:08;;;;;;;48.37;30.43;;;;;;;;;;6257283;28;20037;-82
2022/04/27 05:32:27;;;;;;;41.15;25.00;;;;;;;;;;6271856;28;20032;-82
2022/04/27 05:35:27;;;;;;;33.10;19.17;;;;;;;;;;6269837;28;20037;-82
2022/04/27 05:38:28;;;;;;;28.70;16.23;;;;;;;;;;6253545;28;20035;-82
2022/04/27 05:41:28;;;;;;;27.27;17.30;;;;;;;;;;6270400;28;20447;-82
2022/04/27 05:44:28;;;;;;;20.73;14.07;;;;;;;;;;6269087;28;20060;-82
2022/04/27 05:47:28;;;;;;;17.13;11.40;;;;;;;;;;6270982;28;20381;-82
2022/04/27 05:50:29;;;;;;;20.33;12.63;;;;;;;;;;6270206;28;20023;-82
2022/04/27 05:53:29;;;;;;;19.70;10.93;;;;;;;;;;6255010;28;20051;-82
2022/04/27 05:56:29;;;;;;;21.47;11.43;;;;;;;;;;6270552;28;20025;-82
2022/04/27 05:59:30;;;;;;;16.90;10.07;;;;;;;;;;6271557;28;20300;-82
2022/04/27 06:02:30;;;;;;;17.63;11.30;;;;;;;;;;6269069;28;20282;-82
2022/04/27 06:05:30;;;;;;;17.87;11.40;;;;;;;;;;6253254;28;20029;-82
2022/04/27 06:08:31;;;;;;;17.60;12.03;;;;;;;;;;6269867;28;20013;-82
2022/04/27 06:11:31;;;;;;;14.83;8.90;;;;;;;;;;6269001;28;20076;-82
2022/04/27 06:14:32;;;;;;;14.53;9.33;;;;;;;;;;6257066;28;20047;-81
2022/04/27 06:17:32;;;;;;;15.77;9.60;;;;;;;;;;6269653;28;20062;-81
2022/04/27 06:20:32;;;;;;;17.07;10.57;;;;;;;;;;6257700;28;20455;-83
2022/04/27 06:23:33;;;;;;;16.30;10.87;;;;;;;;;;6270553;28;20044;-82
2022/04/27 06:26:33;;;;;;;16.33;9.40;;;;;;;;;;6250463;28;20614;-81
2022/04/27 06:29:33;;;;;;;14.10;10.20;;;;;;;;;;6253556;28;20090;-81
2022/04/27 06:32:34;;;;;;;14.87;9.53;;;;;;;;;;6265331;28;20025;-81
2022/04/27 06:35:34;;;;;;;15.03;10.00;;;;;;;;;;6251407;28;20036;-81
2022/04/27 06:38:34;;;;;;;16.17;9.90;;;;;;;;;;6269836;28;20112;-82
2022/04/27 06:41:34;;;;;;;14.63;10.33;;;;;;;;;;6269684;28;20070;-81
2022/04/27 06:44:35;;;;;;;15.13;8.27;;;;;;;;;;6251154;28;20051;-81
2022/04/27 06:47:35;;;;;;;16.97;9.33;;;;;;;;;;6269354;28;20020;-81
2022/04/27 06:50:35;;;;;;;14.23;9.17;;;;;;;;;;6251864;28;20020;-81
2022/04/27 06:53:36;;;;;;;13.93;7.77;;;;;;;;;;6265261;28;20112;-81
2022/04/27 06:56:36;;;;;;;13.32;8.18;;;;;;;;;;6265299;28;20104;-81
2022/04/27 06:59:37;;;;;;;11.10;6.03;;;;;;;;;;6269387;28;20423;-81
2022/04/27 07:02:37;;;;;;;10.73;6.20;;;;;;;;;;6251879;28;20392;-81
2022/04/27 07:05:37;;;;;;;9.43;6.20;;;;;;;;;;6250336;28;20029;-81
2022/04/27 07:08:37;;;;;;;10.30;6.63;;;;;;;;;;6269615;28;20059;-81
2022/04/27 07:11:40;;;;;;;12.67;7.33;;;;;;;;;;6259959;28;20099;-81
2022/04/27 07:14:40;;;;;;;11.85;7.82;;;;;;;;;;6265471;28;20025;-81
2022/04/27 07:17:40;;;;;;;10.80;6.70;;;;;;;;;;6268038;28;20029;-80
2022/04/27 07:20:40;;;;;;;12.67;7.90;;;;;;;;;;6269024;28;20028;-80
2022/04/27 07:23:41;;;;;;;10.37;6.97;;;;;;;;;;6251062;28;20529;-80
2022/04/27 07:26:41;;;;;;;11.60;8.23;;;;;;;;;;6246009;28;20030;-81
2022/04/27 07:29:41;;;;;;;12.90;7.73;;;;;;;;;;6269988;28;20099;-81
2022/04/27 07:32:42;;;;;;;10.70;6.97;;;;;;;;;;6250841;28;20074;-81
2022/04/27 07:35:42;;;;;;;13.77;8.03;;;;;;;;;;6268528;28;20021;-81
2022/04/27 07:38:42;;;;;;;13.43;7.17;;;;;;;;;;6269174;28;20040;-81
2022/04/27 07:41:45;;;;;;;10.50;6.97;;;;;;;;;;6250029;28;20021;-81
2022/04/27 07:44:45;;;;;;;11.27;7.10;;;;;;;;;;6268166;28;20024;-81
2022/04/27 07:47:46;;;;;;;12.67;7.63;;;;;;;;;;6250407;28;20067;-80
2022/04/27 07:50:46;;;;;;;15.30;7.35;;;;;;;;;;6251004;28;20112;-81
2022/04/27 07:53:47;;;;;;;10.40;6.57;;;;;;;;;;6268449;28;20392;-81
2022/04/27 07:56:47;;;;;;;10.47;6.43;;;;;;;;;;6250433;28;20166;-80
2022/04/27 07:59:47;;;;;;;8.83;5.80;;;;;;;;;;6250898;28;20778;-81
2022/04/27 08:02:48;;;;;;;9.67;6.00;;;;;;;;;;6250919;28;20798;-81
2022/04/27 08:05:48;;;;;;;9.93;6.27;;;;;;;;;;6267411;28;20562;-80
2022/04/27 08:08:48;;;;;;;10.53;7.50;;;;;;;;;;6247475;28;20035;-80
2022/04/27 08:11:49;;;;;;;9.27;5.57;;;;;;;;;;6255735;28;20035;-81
2022/04/27 08:14:49;;;;;;;13.07;7.07;;;;;;;;;;6255421;28;20032;-81
2022/04/27 08:17:57;;;;;;;9.60;5.47;;;;;;;;;;6275278;28;20028;-80
2022/04/27 08:21:15;;;;;;;11.70;5.85;;;;;;;;;;6276578;28;20407;-80
2022/04/27 08:24:18;;;;;;;8.93;5.68;;;;;;;;;;6271543;28;20032;-80
2022/04/27 08:27:19;;;;;;;8.60;5.22;;;;;;;;;;6273094;28;20116;-80
2022/04/27 08:30:19;;;;;;;8.10;4.23;;;;;;;;;;6273057;28;20392;-80
2022/04/27 08:33:19;;;;;;;9.00;5.47;;;;;;;;;;6273396;28;20021;-81
2022/04/27 08:36:20;;;;;;;9.23;4.80;;;;;;;;;;6254680;28;20055;-80
2022/04/27 08:39:20;;;;;;;8.80;5.57;;;;;;;;;;6272837;28;20066;-81
2022/04/27 08:42:20;;;;;;;8.77;5.83;;;;;;;;;;6254914;28;20025;-80
2022/04/27 08:45:21;;;;;;;8.87;5.90;;;;;;;;;;6272394;28;20383;-80
2022/04/27 08:48:22;;;;;;;8.63;5.25;;;;;;;;;;6254723;28;20476;-80
2022/04/27 08:51:22;;;;;;;8.57;5.17;;;;;;;;;;6271040;28;20135;-80
2022/04/27 08:54:23;;;;;;;9.67;5.30;;;;;;;;;;6250400;28;20419;-80
2022/04/27 08:57:23;;;;;;;8.07;4.75;;;;;;;;;;6253813;28;20029;-80
2022/04/27 09:00:23;;;;;;;7.90;5.00;;;;;;;;;;6270243;28;20126;-81
2022/04/27 09:03:25;;;;;;;9.53;5.90;;;;;;;;;;6254092;28;20021;-80
2022/04/27 09:06:36;;;;;;;7.88;5.32;;;;;;;;;;6266619;28;20032;-80
2022/04/27 09:09:38;;;;;;;9.90;5.22;;;;;;;;;;6267444;28;20481;-81
2022/04/27 09:12:38;;;;;;;;;;;;;;;;;;6252718;28;20013;-81
2022/04/27 09:15:39;;;;;;;10.27;6.13;;;;;;;;;;6271063;28;19947;-80
2022/04/27 09:22:07;;;;;;;10.25;6.05;;;;;;;;;;6271650;28;20033;-80
2022/04/27 09:25:07;;;;;;;8.47;5.37;;;;;;;;;;6270935;28;20074;-81
2022/04/27 09:28:08;;;;;;;10.77;5.67;;;;;;;;;;6271418;28;20016;-80
2022/04/27 09:31:08;;;;;;;10.30;6.17;;;;;;;;;;6253865;28;20082;-80
2022/04/27 09:37:28;;;;;;;9.23;5.15;;;;;;;;;;6271143;28;20475;-81
2022/04/27 09:40:41;;;;;;;7.47;3.87;;;;;;;;;;6286514;28;20087;-79
2022/04/27 09:43:46;;;;;;;9.00;5.03;;;;;;;;;;6272236;28;20111;-80
2022/04/27 09:46:46;;;;;;;9.55;5.57;;;;;;;;;;6270836;28;20071;-81
2022/04/27 09:49:53;;;;;;;8.07;4.80;;;;;;;;;;6270112;28;20048;-81
2022/04/27 09:52:55;;;;;;;11.18;6.50;;;;;;;;;;6269402;28;20473;-81
2022/04/27 09:55:56;;;;;;;;;;;;;;;;;;6244227;28;20021;-81
2022/04/27 09:58:57;;;;;;;9.98;5.60;;;;;;;;;;6269810;28;19905;-80
2022/04/27 10:01:59;;;;;;;13.30;6.55;;;;;;;;;;6270222;28;20115;-80
2022/04/27 10:04:59;;;;;;;9.10;5.72;;;;;;;;;;6269789;28;20029;-80
2022/04/27 10:08:01;;;;;;;10.77;6.23;;;;;;;;;;6267986;28;20711;-80
2022/04/27 10:11:01;;;;;;;10.35;6.03;;;;;;;;;;6240185;28;20041;-81
2022/04/27 10:14:02;;;;;;;14.17;6.27;;;;;;;;;;6243771;28;20670;-81
2022/04/27 10:17:02;;;;;;;13.77;6.43;;;;;;;;;;6242931;28;20017;-81
2022/04/27 10:20:22;;;;;;;11.20;5.70;;;;;;;;;;6258564;28;20108;-81
2022/04/27 10:23:31;;;;;;;7.45;4.40;;;;;;;;;;6249590;28;20488;-81
2022/04/27 10:26:31;;;;;;;9.35;5.28;;;;;;;;;;6261927;28;20021;-81
2022/04/27 10:29:32;;;;;;;9.70;5.13;;;;;;;;;;6265525;28;20092;-81
2022/04/27 10:32:42;;;;;;;8.37;4.97;;;;;;;;;;6265821;28;20009;-81
2022/04/27 10:35:42;;;;;;;13.15;6.53;;;;;;;;;;6266471;28;20040;-81
2022/04/27 10:38:43;;;;;;;9.97;5.67;;;;;;;;;;6250920;28;20029;-81
2022/04/27 10:41:56;;;;;;;9.30;5.30;;;;;;;;;;6251710;28;20031;-81
2022/04/27 10:44:59;;;;;;;8.63;5.47;;;;;;;;;;6250037;28;20029;-81
2022/04/27 10:48:03;;;;;;;8.80;5.15;;;;;;;;;;6264073;28;20024;-81
2022/04/27 10:51:04;;;;;;;9.60;5.30;;;;;;;;;;6267775;28;20500;-81
2022/04/27 10:54:04;;;;;;;10.50;4.97;;;;;;;;;;6244468;28;20025;-81
2022/04/27 10:57:14;;;;;;;9.10;5.77;;;;;;;;;;6243639;28;20017;-81
2022/04/27 11:00:14;;;;;;;10.68;5.40;;;;;;;;;;6255844;28;20033;-81
2022/04/27 11:03:18;;;;;;;9.57;5.67;;;;;;;;;;6268396;28;20027;-81
2022/04/27 11:06:19;;;;;;;8.40;4.65;;;;;;;;;;6266944;28;20480;-81
2022/04/27 11:09:39;;;;;;;6.38;4.40;;;;;;;;;;6262129;28;20045;-81
2022/04/27 11:12:40;;;;;;;9.85;5.85;;;;;;;;;;6220574;28;20373;-81
2022/04/27 11:15:40;;;;;;;10.93;5.47;;;;;;;;;;6231697;28;20067;-80
2022/04/27 11:18:47;;;;;;;8.30;4.93;;;;;;;;;;6267773;28;20033;-80
2022/04/27 11:21:48;;;;;;;7.55;4.18;;;;;;;;;;6233943;28;20057;-80
2022/04/27 11:24:49;;;;;;;10.07;5.27;;;;;;;;;;6249583;28;20028;-80
2022/04/27 11:27:49;;;;;;;9.83;6.00;;;;;;;;;;6249035;28;20112;-80
2022/04/27 11:30:49;;;;;;;12.07;6.43;;;;;;;;;;6267506;28;20036;-80
2022/04/27 11:33:50;;;;;;;11.03;6.33;;;;;;;;;;6268753;28;20028;-80
2022/04/27 11:36:50;;;;;;;11.00;5.50;;;;;;;;;;6266614;28;20025;-80
2022/04/27 11:39:51;;;;;;;12.93;5.77;;;;;;;;;;6251899;28;20021;-80
2022/04/27 11:42:51;;;;;;;9.33;5.80;;;;;;;;;;6266050;28;20025;-80
2022/04/27 11:45:52;;;;;;;14.07;5.63;;;;;;;;;;6247702;28;20028;-80
2022/04/27 11:48:52;;;;;;;7.37;3.87;;;;;;;;;;6266309;28;20013;-80
2022/04/27 11:51:55;;;;;;;8.97;4.50;;;;;;;;;;6265121;28;20027;-80
2022/04/27 11:55:08;;;;;;;8.93;4.80;;;;;;;;;;6266201;28;20472;-81
2022/04/27 11:58:08;;;;;;;12.40;6.55;;;;;;;;;;6250276;28;20109;-80
2022/04/27 12:01:09;;;;;;;13.97;6.60;;;;;;;;;;6261880;28;20028;-80
2022/04/27 12:04:10;;;;;;;14.00;6.67;;;;;;;;;;6267822;28;20027;-80
2022/04/27 12:07:11;;;;;;;10.40;5.20;;;;;;;;;;6255373;28;20036;-80
2022/04/27 12:10:14;;;;;;;9.83;5.63;;;;;;;;;;6259976;28;20060;-80
2022/04/27 12:13:15;;;;;;;12.50;6.18;;;;;;;;;;6265494;28;20032;-80
2022/04/27 12:16:15;;;;;;;11.37;6.30;;;;;;;;;;6265063;28;20094;-81
2022/04/27 12:19:26;;;;;;;11.17;5.60;;;;;;;;;;6266782;28;20021;-81
2022/04/27 12:22:26;;;;;;;10.20;5.50;;;;;;;;;;6263587;28;20040;-80
2022/04/27 12:25:34;;;;;;;10.87;5.90;;;;;;;;;;6244758;28;20025;-80
2022/04/27 12:28:44;;;;;;;9.60;5.68;;;;;;;;;;6260581;28;20017;-80
2022/04/27 12:31:44;;;;;;;11.25;5.85;;;;;;;;;;6246135;28;20029;-81
2022/04/27 12:38:07;;;;;;;10.18;4.65;;;;;;;;;;6246382;28;20029;-80
2022/04/27 12:41:28;;;;;;;11.60;6.75;;;;;;;;;;6267310;28;20025;-80
2022/04/27 12:44:36;;;;;;;9.25;5.07;;;;;;;;;;6248833;28;20029;-81
2022/04/27 12:47:46;;;;;;;9.73;5.07;;;;;;;;;;6265736;28;20035;-81
2022/04/27 12:50:48;;;;;;;9.30;4.38;;;;;;;;;;6245751;28;20601;-81
2022/04/27 12:53:50;;;;;;;7.50;4.53;;;;;;;;;;6248681;28;20345;-80
2022/04/27 12:56:58;;;;;;;9.50;4.88;;;;;;;;;;6267022;28;20506;-80
2022/04/27 12:59:59;;;;;;;9.77;4.68;;;;;;;;;;6270828;28;20033;-80
2022/04/27 13:03:00;;;;;;;8.35;4.60;;;;;;;;;;6257298;28;20037;-80
2022/04/27 13:06:00;;;;;;;7.07;3.07;;;;;;;;;;6270372;28;20446;-80
2022/04/27 13:12:19;;;;;;;5.50;3.25;;;;;;;;;;6251805;28;20037;-81
2022/04/27 13:15:19;;;;;;;6.80;3.40;;;;;;;;;;6251303;28;20512;-81
2022/04/27 13:18:20;;;;;;;5.33;3.37;;;;;;;;;;6232778;28;20392;-81
2022/04/27 13:21:20;;;;;;;5.53;3.80;;;;;;;;;;6272489;28;20051;-81
2022/04/27 13:24:21;;;;;;;6.23;3.80;;;;;;;;;;6267522;28;20103;-80
2022/04/27 13:27:23;;;;;;;8.07;4.43;;;;;;;;;;6272059;28;20051;-81
2022/04/27 13:30:23;;;;;;;7.40;3.63;;;;;;;;;;6267377;28;20017;-81
2022/04/27 13:33:23;;;;;;;8.67;3.53;;;;;;;;;;6245290;28;20021;-81
2022/04/27 13:36:24;;;;;;;7.57;3.17;;;;;;;;;;6265457;28;20029;-81
2022/04/27 13:39:24;;;;;;;6.50;3.53;;;;;;;;;;6268477;28;20031;-80
2022/04/27 13:42:25;;;;;;;7.00;4.20;;;;;;;;;;6269519;28;20267;-81
2022/04/27 13:45:25;;;;;;;6.70;3.93;;;;;;;;;;6268212;28;20021;-81
2022/04/27 13:48:25;;;;;;;6.30;3.20;;;;;;;;;;6271130;28;20028;-81
2022/04/27 13:51:26;;;;;;;9.27;4.77;;;;;;;;;;6270223;28;20025;-81
2022/04/27 13:54:27;;;;;;;8.00;4.97;;;;;;;;;;6262773;28;20555;-81
2022/04/27 13:57:28;;;;;;;10.27;4.23;;;;;;;;;;6269643;28;20053;-81
2022/04/27 14:00:28;;;;;;;6.17;3.90;;;;;;;;;;6273736;28;20396;-81
2022/04/27 14:03:28;;;;;;;7.50;4.40;;;;;;;;;;6270240;28;20047;-81
2022/04/27 14:06:28;;;;;;;11.67;4.87;;;;;;;;;;6264342;28;20100;-81
2022/04/27 14:09:29;;;;;;;8.73;3.43;;;;;;;;;;6269348;28;20049;-81
2022/04/27 14:19:07;;;;;;;11.57;6.03;;;;;;;;;;6270913;28;20045;-83
2022/04/27 14:22:07;;;;;;;10.10;5.13;;;;;;;;;;6269786;28;20167;-82
2022/04/27 14:25:08;;;;;;;9.13;4.57;;;;;;;;;;6269259;28;20107;-82
2022/04/27 14:28:09;;;;;;;8.67;4.20;;;;;;;;;;6253873;28;20124;-82
2022/04/27 14:31:09;;;;;;;11.70;4.70;;;;;;;;;;6266133;28;20064;-81
2022/04/27 14:34:10;;;;;;;9.50;4.70;;;;;;;;;;6268842;28;20027;-81
2022/04/27 14:37:10;;;;;;;15.83;6.37;;;;;;;;;;6269913;28;20033;-81
2022/04/27 14:40:11;;;;;;;8.37;3.87;;;;;;;;;;6251330;28;20025;-81
2022/04/27 14:43:12;;;;;;;8.90;4.10;;;;;;;;;;6250142;28;20044;-81
2022/04/27 14:46:13;;;;;;;6.60;3.60;;;;;;;;;;6249879;28;20287;-81
2022/04/27 14:49:14;;;;;;;6.00;3.97;;;;;;;;;;6274570;28;20348;-81
2022/04/27 14:52:14;;;;;;;7.63;3.53;;;;;;;;;;6265314;28;20028;-81
2022/04/27 14:55:14;;;;;;;6.93;3.83;;;;;;;;;;6240976;28;20404;-81
2022/04/27 14:58:15;;;;;;;10.57;4.40;;;;;;;;;;6245993;28;20027;-81
2022/04/27 15:01:15;;;;;;;6.47;3.97;;;;;;;;;;6254905;28;20025;-81
2022/04/27 15:04:15;;;;;;;8.93;3.80;;;;;;;;;;6249728;28;20040;-81
2022/04/27 15:07:16;;;;;;;7.73;3.47;;;;;;;;;;6267032;28;20056;-81
2022/04/27 15:10:17;;;;;;;7.43;3.70;;;;;;;;;;6265051;28;20418;-81
2022/04/27 15:13:17;;;;;;;8.82;3.55;;;;;;;;;;6267994;28;20059;-81
2022/04/27 15:16:18;;;;;;;8.70;3.57;;;;;;;;;;6266520;28;20480;-81
2022/04/27 15:19:18;;;;;;;11.73;3.20;;;;;;;;;;6251532;28;20029;-81
2022/04/27 15:25:37;;;;;;;9.68;5.65;;;;;;;;;;6264940;28;20037;-81
2022/04/27 15:28:37;;;;;;;15.53;6.23;;;;;;;;;;6256831;28;20388;-81
2022/04/27 15:31:38;;;;;;;9.83;4.27;;;;;;;;;;6237628;28;20058;-81
2022/04/27 15:34:38;;;;;;;10.07;4.60;;;;;;;;;;6268838;28;20025;-81
2022/04/27 15:37:38;;;;;;;8.03;3.70;;;;;;;;;;6269940;28;20048;-81
2022/04/27 15:40:38;;;;;;;7.37;3.63;;;;;;;;;;6269435;28;20021;-80
2022/04/27 15:43:40;;;;;;;3.87;2.47;;;;;;;;;;6269179;28;20048;-81
2022/04/27 15:46:41;;;;;;;;;;;;;;;;;;6254293;28;20099;-81
2022/04/27 15:49:41;;;;;;;10.05;4.07;;;;;;;;;;6269068;28;19936;-80
2022/04/27 15:52:42;;;;;;;13.63;6.63;;;;;;;;;;6265609;28;20024;-81
2022/04/27 15:55:42;;;;;;;14.10;7.63;;;;;;;;;;6265626;28;20020;-80
2022/04/27 15:58:43;;;;;;;9.90;5.00;;;;;;;;;;6265088;28;20090;-80
2022/04/27 16:01:43;;;;;;;10.37;5.33;;;;;;;;;;6265029;28;20657;-81
2022/04/27 16:04:44;;;;;;;7.13;4.17;;;;;;;;;;6262349;28;20029;-80
2022/04/27 16:07:44;;;;;;;8.47;3.70;;;;;;;;;;6266868;28;20045;-81
2022/04/27 16:10:45;;;;;;;9.07;4.17;;;;;;;;;;6259311;28;20111;-81
2022/04/27 16:13:46;;;;;;;9.60;5.33;;;;;;;;;;6234096;28;20029;-81
2022/04/27 16:16:46;;;;;;;15.10;6.25;;;;;;;;;;6267342;28;20440;-80
2022/04/27 16:19:46;;;;;;;13.93;5.47;;;;;;;;;;6248497;28;20059;-80
2022/04/27 16:26:06;;;;;;;11.65;5.35;;;;;;;;;;6262948;28;20029;-81
2022/04/27 16:29:06;;;;;;;11.40;5.00;;;;;;;;;;6252951;28;20040;-81
2022/04/27 16:32:07;;;;;;;9.48;5.07;;;;;;;;;;6272401;28;20017;-80
2022/04/27 16:35:07;;;;;;;9.10;4.83;;;;;;;;;;6271974;28;20036;-81
2022/04/27 16:38:07;;;;;;;11.10;5.47;;;;;;;;;;6271597;28;20017;-80
2022/04/27 16:41:07;;;;;;;10.83;4.97;;;;;;;;;;6270154;28;20029;-81
2022/04/27 16:44:08;;;;;;;10.67;4.97;;;;;;;;;;6252257;28;20017;-81
2022/04/27 16:47:08;;;;;;;6.95;3.92;;;;;;;;;;6246335;28;20025;-81
2022/04/27 16:50:08;;;;;;;8.80;4.70;;;;;;;;;;6247139;28;20028;-81
2022/04/27 16:53:09;;;;;;;14.55;6.35;;;;;;;;;;6230993;28;20025;-81
2022/04/27 16:56:11;;;;;;;14.07;7.15;;;;;;;;;;6272708;28;20044;-81
2022/04/27 16:59:11;;;;;;;17.35;6.63;;;;;;;;;;6254513;28;20060;-81
2022/04/27 17:02:12;;;;;;;15.80;6.17;;;;;;;;;;6270528;28;20021;-81
2022/04/27 17:05:12;;;;;;;9.73;5.67;;;;;;;;;;6254587;28;20028;-80
2022/04/27 17:08:13;;;;;;;14.35;6.60;;;;;;;;;;6271989;28;20017;-80
2022/04/27 17:11:14;;;;;;;12.73;6.10;;;;;;;;;;6249121;28;20463;-80
2022/04/27 17:14:14;;;;;;;18.23;7.97;;;;;;;;;;6246203;28;20017;-82
2022/04/27 17:17:14;;;;;;;14.27;7.90;;;;;;;;;;6266574;28;20151;-81
2022/04/27 17:20:14;;;;;;;13.50;8.03;;;;;;;;;;6253889;28;20307;-81
2022/04/27 17:23:15;;;;;;;19.20;8.07;;;;;;;;;;6271979;28;20336;-80
2022/04/27 17:29:34;;;;;;;18.77;9.02;;;;;;;;;;6270235;28;20287;-81
2022/04/27 17:32:35;;;;;;;15.80;7.33;;;;;;;;;;6269655;28;20031;-81
2022/04/27 17:35:35;;;;;;;11.02;5.53;;;;;;;;;;6269992;28;20291;-81
2022/04/27 17:38:35;;;;;;;13.43;5.73;;;;;;;;;;6252468;28;20057;-81
2022/04/27 17:41:36;;;;;;;13.65;5.85;;;;;;;;;;6259493;28;20276;-82
2022/04/27 17:44:36;;;;;;;16.58;6.95;;;;;;;;;;6270568;28;20380;-81
2022/04/27 17:47:37;;;;;;;25.87;13.43;;;;;;;;;;6268648;28;20017;-80
2022/04/27 17:50:37;;;;;;;24.05;12.98;;;;;;;;;;6271438;28;20693;-81
2022/04/27 17:53:39;;;;;;;20.17;10.37;;;;;;;;;;6270828;28;20009;-81
2022/04/27 17:56:39;;;;;;;16.38;8.48;;;;;;;;;;6252552;28;20271;-81
2022/04/27 17:59:39;;;;;;;22.60;7.37;;;;;;;;;;6250209;28;20028;-81
2022/04/27 18:02:40;;;;;;;21.17;9.43;;;;;;;;;;6270013;28;20256;-81
2022/04/27 18:05:40;;;;;;;21.00;9.25;;;;;;;;;;6251015;28;20275;-81
2022/04/27 18:08:41;;;;;;;27.02;12.30;;;;;;;;;;6268280;28;20044;-81
2022/04/27 18:11:41;;;;;;;36.72;19.00;;;;;;;;;;6267579;28;20049;-81
2022/04/27 18:14:41;;;;;;;25.45;11.07;;;;;;;;;;6267391;28;20073;-81
2022/04/27 18:17:42;;;;;;;19.17;8.57;;;;;;;;;;6255137;28;20222;-80
2022/04/27 18:20:42;;;;;;;22.08;8.73;;;;;;;;;;6255173;28;20020;-80
2022/04/27 18:23:42;;;;;;;22.45;8.30;;;;;;;;;;6267616;28;20693;-80
2022/04/27 18:26:43;;;;;;;21.08;9.50;;;;;;;;;;6267831;28;20056;-80
2022/04/27 18:29:43;;;;;;;23.05;10.05;;;;;;;;;;6267764;28;20096;-81
2022/04/27 18:32:43;;;;;;;21.17;9.07;;;;;;;;;;6269346;28;20028;-80
2022/04/27 18:35:44;;;;;;;18.92;8.95;;;;;;;;;;6270349;28;20095;-80